Time;durP1;ratioP1;P1;durP2;ratioP2;P2;SDS_P1;SDS_P2;PMS_P1;PMS_P2;Temp;Humidity;BMP_temperature;BMP_pressure;BME280_temperature;BME280_humidity;BME280_pressure;Samples;Min_cycle;Max_cycle;Signal;HPM_P1;HPM_P2
2023/12/16 00:01:48;;;;;;;1.98;1.42;;;;;;;4.01;100.00;100505.94;4979071;28;20035;-79
2023/12/16 00:04:13;;;;;;;1.85;1.45;;;;;;;3.95;100.00;100510.09;4984291;28;20069;-76
2023/12/16 00:06:39;;;;;;;3.92;1.90;;;;;;;4.29;100.00;100535.50;4980875;28;20034;-75
2023/12/16 00:09:04;;;;;;;2.50;1.70;;;;;;;4.40;100.00;100578.31;4960836;28;20158;-73
2023/12/16 00:11:30;;;;;;;1.20;1.00;;;;;;;3.57;100.00;100479.63;4981517;28;20035;-74
2023/12/16 00:13:56;;;;;;;1.60;1.10;;;;;;;3.79;100.00;100544.34;4965278;28;20045;-76
2023/12/16 00:16:22;;;;;;;2.70;1.20;;;;;;;4.03;100.00;100596.50;4962028;28;20038;-75
2023/12/16 00:18:49;;;;;;;2.22;1.42;;;;;;;2.91;100.00;100412.03;4967886;28;20038;-75
2023/12/16 00:21:14;;;;;;;2.30;1.40;;;;;;;4.06;100.00;100547.03;4981277;28;20034;-78
2023/12/16 00:23:40;;;;;;;2.42;1.33;;;;;;;3.47;100.00;100483.72;4960742;28;20035;-75
2023/12/16 00:26:05;;;;;;;2.00;0.90;;;;;;;3.52;100.00;100511.44;4964082;28;20038;-74
2023/12/16 00:28:31;;;;;;;2.30;1.20;;;;;;;3.50;100.00;100462.81;4981247;28;20055;-74
2023/12/16 00:30:57;;;;;;;2.10;1.00;;;;;;;3.43;100.00;100509.66;4962246;28;20487;-76
2023/12/16 00:33:22;;;;;;;1.98;1.10;;;;;;;3.59;100.00;100534.91;4984363;28;20037;-74
2023/12/16 00:35:48;;;;;;;2.22;0.90;;;;;;;3.81;100.00;100516.69;4979766;28;20015;-73
2023/12/16 00:38:13;;;;;;;1.10;0.73;;;;;;;3.55;100.00;100508.91;4979923;28;20026;-74
2023/12/16 00:40:39;;;;;;;1.52;0.73;;;;;;;2.87;100.00;100425.41;4976929;28;20031;-74
2023/12/16 00:43:05;;;;;;;1.10;0.70;;;;;;;3.11;100.00;100497.63;4964385;28;20023;-73
2023/12/16 00:45:30;;;;;;;0.77;0.60;;;;;;;2.83;100.00;100431.22;4966395;28;20038;-78
2023/12/16 00:47:56;;;;;;;1.10;0.80;;;;;;;2.83;100.00;100436.25;4982139;28;20041;-73
2023/12/16 00:50:22;;;;;;;1.85;1.13;;;;;;;3.04;100.00;100464.06;4963362;28;20057;-75
2023/12/16 00:52:47;;;;;;;2.72;1.10;;;;;;;3.14;100.00;100482.59;4963395;28;20493;-74
2023/12/16 00:55:13;;;;;;;1.13;0.80;;;;;;;3.11;100.00;100497.63;4981556;28;20041;-77
2023/12/16 00:57:39;;;;;;;2.97;0.82;;;;;;;3.28;100.00;100471.84;4966483;28;20034;-75
2023/12/16 01:00:06;;;;;;;1.85;0.70;;;;;;;3.09;100.00;100490.06;4959895;28;20041;-75
2023/12/16 01:02:32;;;;;;;1.75;0.82;;;;;;;2.85;100.00;100432.09;4979237;28;20073;-75
2023/12/16 01:04:57;;;;;;;0.85;0.50;;;;;;;2.83;100.00;100446.28;4965432;28;20057;-75
2023/12/16 01:07:23;;;;;;;0.65;0.30;;;;;;;3.37;100.00;100513.78;4980975;28;20018;-75
2023/12/16 01:09:52;;;;;;;0.70;0.40;;;;;;;2.97;100.00;100472.34;4957030;28;20027;-74
2023/12/16 01:12:18;;;;;;;1.23;0.45;;;;;;;3.50;100.00;100523.97;4978525;28;20038;-75
2023/12/16 01:14:44;;;;;;;0.85;0.52;;;;;;;3.50;100.00;100556.66;4982360;28;20527;-80
2023/12/16 01:17:09;;;;;;;0.85;0.60;;;;;;;3.25;100.00;100481.84;4965683;28;20033;-74
2023/12/16 01:19:35;;;;;;;0.90;0.60;;;;;;;2.80;100.00;100431.19;4962908;28;20041;-74
2023/12/16 01:22:01;;;;;;;1.60;0.70;;;;;;;3.32;100.00;100483.59;4981654;28;20039;-75
2023/12/16 01:24:27;;;;;;;1.27;0.80;;;;;;;3.43;100.00;100536.44;4978888;28;20027;-75
2023/12/16 01:26:52;;;;;;;1.10;0.82;;;;;;;3.51;100.00;100575.06;4963009;28;20081;-75
2023/12/16 01:29:18;;;;;;;1.00;0.70;;;;;;;3.56;100.00;100598.59;4980219;28;20054;-74
2023/12/16 01:31:43;;;;;;;2.00;1.00;;;;;;;3.69;100.00;100555.13;4965214;28;20035;-79
2023/12/16 01:34:09;;;;;;;2.47;1.13;;;;;;;3.50;100.00;100551.63;4978918;28;20034;-74
2023/12/16 01:36:34;;;;;;;1.52;0.80;;;;;;;3.61;100.00;100576.00;4982254;28;20038;-74
2023/12/16 01:39:00;;;;;;;0.85;0.50;;;;;;;3.70;100.00;100608.78;4962441;28;20062;-74
2023/12/16 01:41:25;;;;;;;1.92;0.80;;;;;;;3.23;100.00;100588.16;4981896;28;20034;-74
2023/12/16 01:43:51;;;;;;;0.77;0.50;;;;;;;3.48;100.00;100553.28;4978659;28;20042;-76
2023/12/16 01:46:18;;;;;;;0.98;0.50;;;;;;;3.59;100.00;100603.63;4959170;28;20046;-74
2023/12/16 01:48:44;;;;;;;0.43;0.30;;;;;;;3.37;100.00;100582.47;4957647;28;20184;-75
2023/12/16 01:51:10;;;;;;;1.60;0.50;;;;;;;3.52;100.00;100549.13;4979795;28;20041;-74
2023/12/16 01:53:37;;;;;;;0.60;0.43;;;;;;;3.67;100.00;100597.00;4958050;28;20429;-75
2023/12/16 01:56:03;;;;;;;0.35;0.20;;;;;;;3.50;100.00;100579.28;4984983;28;20091;-74
2023/12/16 01:58:29;;;;;;;1.17;0.50;;;;;;;3.42;100.00;100550.72;4962400;28;20189;-75
2023/12/16 02:00:55;;;;;;;0.68;0.40;;;;;;;3.23;100.00;100488.53;4964872;28;20446;-74
2023/12/16 02:03:22;;;;;;;0.63;0.30;;;;;;;3.39;100.00;100553.16;4981704;28;20038;-75
2023/12/16 02:05:47;;;;;;;1.02;0.70;;;;;;;3.56;100.00;100570.09;4962281;28;20035;-75
2023/12/16 02:08:13;;;;;;;0.65;0.40;;;;;;;3.59;100.00;100548.34;4963568;28;20599;-75
2023/12/16 02:10:39;;;;;;;1.02;0.50;;;;;;;3.21;100.00;100496.91;4964010;28;20041;-75
2023/12/16 02:13:05;;;;;;;0.55;0.32;;;;;;;3.68;100.00;100548.44;4975586;28;20034;-73
2023/12/16 02:15:31;;;;;;;0.65;0.30;;;;;;;3.67;100.00;100591.97;4980594;28;20105;-75
2023/12/16 02:17:56;;;;;;;0.20;0.20;;;;;;;3.62;100.00;100572.66;4979431;28;20429;-74
2023/12/16 02:20:22;;;;;;;0.40;0.20;;;;;;;3.71;100.00;100585.31;4958881;28;20030;-74
2023/12/16 02:22:48;;;;;;;0.88;0.50;;;;;;;3.36;100.00;100528.03;4981745;28;20085;-76
2023/12/16 02:25:15;;;;;;;0.65;0.50;;;;;;;3.46;100.00;100534.84;4984483;28;20511;-75
2023/12/16 02:27:45;;;;;;;1.10;0.60;;;;;;;3.69;100.00;100609.59;4965070;28;20181;-79
2023/12/16 02:30:11;;;;;;;0.52;0.20;;;;;;;3.40;100.00;100551.50;4966987;28;20043;-75
2023/12/16 02:32:38;;;;;;;0.55;0.30;;;;;;;3.64;100.00;100568.50;4978605;28;20472;-75
2023/12/16 02:35:04;;;;;;;0.20;0.17;;;;;;;3.13;100.00;100491.78;4982197;28;20053;-74
2023/12/16 02:37:29;;;;;;;0.47;0.30;;;;;;;3.48;100.00;100545.75;4980307;28;20496;-75
2023/12/16 02:39:55;;;;;;;0.25;0.13;;;;;;;3.84;100.00;100598.03;4980044;28;20033;-75
2023/12/16 02:42:20;;;;;;;0.32;0.22;;;;;;;3.61;100.00;100573.47;4982714;28;20104;-77
2023/12/16 02:44:46;;;;;;;2.17;0.40;;;;;;;3.58;100.00;100563.41;4984330;28;20037;-74
2023/12/16 02:47:11;;;;;;;0.32;0.20;;;;;;;4.02;100.00;100625.00;4970136;28;20034;-74
2023/12/16 02:49:37;;;;;;;0.38;0.20;;;;;;;3.81;100.00;100627.31;4980292;28;20039;-74
2023/12/16 02:52:03;;;;;;;0.30;0.20;;;;;;;3.56;100.00;100534.91;4964185;28;20034;-73
2023/12/16 02:54:28;;;;;;;1.35;0.50;;;;;;;3.92;100.00;100616.50;4961918;28;20046;-74
2023/12/16 02:56:54;;;;;;;1.52;0.70;;;;;;;4.02;100.00;100605.72;4979548;28;20033;-73
2023/12/16 02:59:19;;;;;;;1.25;0.40;;;;;;;3.61;100.00;100576.00;4966205;28;20039;-77
2023/12/16 03:01:45;;;;;;;0.45;0.30;;;;;;;3.99;100.00;100637.53;4967040;28;20027;-73
2023/12/16 03:04:10;;;;;;;0.20;0.20;;;;;;;3.97;100.00;100641.72;4978897;28;20050;-75
2023/12/16 03:06:42;;;;;;;0.10;0.10;;;;;;;3.39;100.00;100559.84;4965816;28;20029;-74
2023/12/16 03:09:07;;;;;;;0.30;0.10;;;;;;;3.99;100.00;100602.31;4981718;28;20096;-75
2023/12/16 03:11:33;;;;;;;0.38;0.28;;;;;;;3.92;100.00;100577.97;4963958;28;20038;-74
2023/12/16 03:13:58;;;;;;;0.30;0.20;;;;;;;4.15;100.00;100644.41;4977948;28;20077;-77
2023/12/16 03:16:24;;;;;;;0.28;0.28;;;;;;;4.01;100.00;100628.34;4966376;28;20465;-74
2023/12/16 03:18:49;;;;;;;0.47;0.35;;;;;;;4.23;100.00;100660.41;4965207;28;20027;-73
2023/12/16 03:21:15;;;;;;;2.63;1.10;;;;;;;3.75;100.00;100560.22;4968327;28;20547;-74
2023/12/16 03:23:40;;;;;;;1.23;0.50;;;;;;;4.11;100.00;100600.75;4964948;28;20077;-75
2023/12/16 03:26:06;;;;;;;0.70;0.50;;;;;;;3.72;100.00;100587.00;4979669;28;20154;-74
2023/12/16 03:28:32;;;;;;;0.70;0.50;;;;;;;4.09;100.00;100627.59;4983610;28;20134;-74
2023/12/16 03:30:57;;;;;;;1.40;0.70;;;;;;;3.78;100.00;100604.66;4983800;28;20467;-75
2023/12/16 03:33:23;;;;;;;0.77;0.60;;;;;;;3.98;100.00;100638.38;4986829;28;20087;-75
2023/12/16 03:35:48;;;;;;;1.27;0.65;;;;;;;3.89;100.00;100613.97;4984502;28;20117;-75
2023/12/16 03:38:14;;;;;;;0.90;0.50;;;;;;;3.72;100.00;100576.94;4978354;28;20126;-75
2023/12/16 03:40:39;;;;;;;0.90;0.73;;;;;;;4.00;100.00;100622.47;4981718;28;20074;-75
2023/12/16 03:43:04;;;;;;;0.70;0.60;;;;;;;3.85;100.00;100621.47;4981375;28;20031;-75
2023/12/16 03:45:30;;;;;;;1.17;0.80;;;;;;;3.43;100.00;100528.91;4980242;28;20058;-74
2023/12/16 03:47:55;;;;;;;1.35;0.70;;;;;;;3.46;100.00;100542.38;4982735;28;20031;-77
2023/12/16 03:50:21;;;;;;;0.90;0.60;;;;;;;3.40;100.00;100533.94;4982973;28;20517;-74
2023/12/16 03:52:48;;;;;;;1.08;0.70;;;;;;;3.99;100.00;100609.88;4976192;28;20086;-76
2023/12/16 03:55:14;;;;;;;0.55;0.40;;;;;;;3.39;100.00;100528.03;4965080;28;20038;-76
2023/12/16 03:57:39;;;;;;;0.73;0.60;;;;;;;3.36;100.00;100525.53;4982143;28;20038;-74
2023/12/16 04:00:05;;;;;;;0.73;0.50;;;;;;;3.97;100.00;100587.22;4964129;28;20041;-75
2023/12/16 04:02:31;;;;;;;1.05;0.63;;;;;;;3.59;100.00;100550.84;4979079;28;20489;-73
2023/12/16 04:04:56;;;;;;;0.70;0.50;;;;;;;3.56;100.00;100548.31;4977942;28;20113;-73
2023/12/16 04:07:22;;;;;;;0.80;0.40;;;;;;;3.92;100.00;100588.84;4983249;28;20414;-73
2023/12/16 04:09:48;;;;;;;0.30;0.30;;;;;;;3.54;100.00;100537.41;4980092;28;20053;-74
2023/12/16 04:12:14;;;;;;;0.40;0.30;;;;;;;3.53;100.00;100537.41;4980089;28;20049;-74
2023/12/16 04:14:40;;;;;;;0.30;0.30;;;;;;;3.83;100.00;100550.22;4985696;28;20034;-75
2023/12/16 04:17:06;;;;;;;0.65;0.30;;;;;;;3.37;100.00;100526.34;4984219;28;20465;-75
2023/12/16 04:19:32;;;;;;;0.43;0.32;;;;;;;3.93;100.00;100584.66;4984060;28;20033;-77
2023/12/16 04:21:57;;;;;;;1.40;0.40;;;;;;;3.42;100.00;100529.75;4968320;28;20030;-76
2023/12/16 04:24:23;;;;;;;0.73;0.35;;;;;;;3.94;100.00;100598.94;4985289;28;20046;-76
2023/12/16 04:26:48;;;;;;;0.80;0.40;;;;;;;3.60;100.00;100544.16;4984988;28;20041;-75
2023/12/16 04:29:14;;;;;;;0.40;0.30;;;;;;;3.80;100.00;100596.31;4983898;28;20061;-74
2023/12/16 04:31:40;;;;;;;0.20;0.20;;;;;;;3.53;100.00;100541.59;4964731;28;20539;-76
2023/12/16 04:34:06;;;;;;;0.68;0.30;;;;;;;3.88;100.00;100563.69;4966570;28;20026;-74
2023/12/16 04:36:31;;;;;;;0.38;0.30;;;;;;;3.79;100.00;100559.41;4983096;28;21194;-73
2023/12/16 04:38:57;;;;;;;0.70;0.20;;;;;;;4.07;100.00;100628.38;4984958;28;20081;-75
2023/12/16 04:41:22;;;;;;;0.40;0.30;;;;;;;3.83;100.00;100575.34;4981754;28;20054;-71
2023/12/16 04:43:48;;;;;;;0.38;0.28;;;;;;;4.25;100.00;100566.50;4965218;28;20038;-74
2023/12/16 04:46:19;;;;;;;0.50;0.30;;;;;;;3.57;100.00;100516.47;4968011;28;20031;-75
2023/12/16 04:48:44;;;;;;;0.70;0.50;;;;;;;3.91;100.00;100588.84;4964086;28;20164;-72
2023/12/16 04:51:10;;;;;;;0.57;0.30;;;;;;;4.03;100.00;100611.59;4967126;28;20070;-72
2023/12/16 04:53:35;;;;;;;0.45;0.30;;;;;;;3.72;100.00;100549.28;4980494;28;20481;-73
2023/12/16 04:56:01;;;;;;;0.25;0.20;;;;;;;4.09;100.00;100569.72;4981299;28;20180;-75
2023/12/16 04:58:26;;;;;;;0.43;0.35;;;;;;;4.10;100.00;100624.22;4966886;28;20029;-72
2023/12/16 05:00:52;;;;;;;1.00;0.32;;;;;;;3.73;100.00;100549.31;4964319;28;20027;-72
2023/12/16 05:03:18;;;;;;;0.40;0.30;;;;;;;3.88;100.00;100566.19;4981735;28;20552;-72
2023/12/16 05:05:43;;;;;;;0.30;0.30;;;;;;;4.09;100.00;100579.78;4963159;28;20050;-81
2023/12/16 05:08:09;;;;;;;0.40;0.30;;;;;;;4.35;100.00;100600.97;4965150;28;20416;-76
2023/12/16 05:10:35;;;;;;;1.83;0.30;;;;;;;3.22;100.00;100446.66;4962374;28;20581;-72
2023/12/16 05:13:00;;;;;;;1.30;0.63;;;;;;;4.04;100.00;100527.78;4961714;28;20477;-75
2023/12/16 05:15:26;;;;;;;1.90;1.08;;;;;;;3.93;100.00;100526.84;4981051;28;20038;-76
2023/12/16 05:17:51;;;;;;;2.08;1.20;;;;;;;3.79;100.00;100470.56;4982085;28;20023;-73
2023/12/16 05:20:17;;;;;;;0.95;0.40;;;;;;;3.89;100.00;100532.66;4966246;28;20049;-76
2023/12/16 05:22:43;;;;;;;0.70;0.50;;;;;;;3.95;100.00;100507.56;4966289;28;20042;-74
2023/12/16 05:25:08;;;;;;;0.52;0.30;;;;;;;3.62;100.00;100472.97;4961569;28;20041;-75
2023/12/16 05:27:34;;;;;;;0.40;0.30;;;;;;;3.70;100.00;100470.50;4966477;28;20037;-74
2023/12/16 05:30:01;;;;;;;1.20;0.70;;;;;;;3.62;100.00;100484.69;4963455;28;20026;-75
2023/12/16 05:32:27;;;;;;;1.00;0.50;;;;;;;4.00;100.00;100518.53;4977201;28;20405;-74
2023/12/16 05:34:54;;;;;;;0.85;0.50;;;;;;;3.83;100.00;100497.41;4961130;28;20035;-75
2023/12/16 05:37:19;;;;;;;2.08;0.70;;;;;;;4.01;100.00;100542.81;4960108;28;20033;-75
2023/12/16 05:39:45;;;;;;;1.85;0.95;;;;;;;4.02;100.00;100530.25;4981342;28;20207;-75
2023/12/16 05:42:11;;;;;;;0.80;0.50;;;;;;;3.88;100.00;100483.22;4957235;28;20031;-76
2023/12/16 05:44:36;;;;;;;1.85;0.90;;;;;;;4.09;100.00;100537.03;4978909;28;20034;-75
2023/12/16 05:47:02;;;;;;;1.58;0.70;;;;;;;4.16;100.00;100538.75;4958465;28;20171;-75
2023/12/16 05:49:27;;;;;;;0.50;0.32;;;;;;;4.03;100.00;100546.19;4962815;28;20066;-75
2023/12/16 05:51:54;;;;;;;0.95;0.50;;;;;;;3.96;100.00;100520.16;4976211;28;20062;-74
2023/12/16 05:54:19;;;;;;;0.65;0.40;;;;;;;4.03;100.00;100521.03;4976983;28;20034;-75
2023/12/16 05:56:45;;;;;;;0.60;0.40;;;;;;;3.38;100.00;100399.91;4962424;28;20413;-74
2023/12/16 05:59:11;;;;;;;1.10;0.50;;;;;;;3.57;100.00;100443.59;4963802;28;20026;-74
2023/12/16 06:01:36;;;;;;;2.65;1.50;;;;;;;4.11;100.00;100537.03;4962482;28;20027;-75
2023/12/16 06:04:01;;;;;;;2.95;1.42;;;;;;;4.13;100.00;100520.28;4964606;28;20042;-75
2023/12/16 06:06:27;;;;;;;2.60;1.65;;;;;;;3.91;100.00;100490.78;4983640;28;20039;-76
2023/12/16 06:08:53;;;;;;;2.65;1.42;;;;;;;3.89;100.00;100498.31;4965208;28;20026;-75
2023/12/16 06:11:21;;;;;;;1.90;1.20;;;;;;;3.98;100.00;100474.91;4965659;28;20031;-75
2023/12/16 06:13:48;;;;;;;2.33;1.50;;;;;;;3.79;100.00;100473.09;4987594;28;20121;-75
2023/12/16 06:16:16;;;;;;;1.75;1.10;;;;;;;3.66;100.00;100423.56;4966977;28;20045;-74
2023/12/16 06:18:49;;;;;;;2.72;1.40;;;;;;;4.29;100.00;100547.22;4984187;28;20568;-78
2023/12/16 06:21:15;;;;;;;2.95;1.42;;;;;;;4.53;100.00;100539.81;4982201;28;20030;-75
2023/12/16 06:23:40;;;;;;;2.22;1.27;;;;;;;4.44;100.00;100581.72;4965047;28;20037;-75
2023/12/16 06:26:06;;;;;;;1.85;1.13;;;;;;;4.52;100.00;100578.41;4982706;28;20026;-77
2023/12/16 06:28:32;;;;;;;1.10;0.75;;;;;;;4.39;100.00;100522.13;4985438;28;20096;-75
2023/12/16 06:30:57;;;;;;;1.58;0.90;;;;;;;4.41;100.00;100569.94;4978930;28;20038;-74
2023/12/16 06:33:23;;;;;;;1.70;1.00;;;;;;;3.95;100.00;100464.81;4982946;28;20099;-74
2023/12/16 06:35:49;;;;;;;1.67;1.02;;;;;;;3.80;100.00;100474.78;4979911;28;21051;-74
2023/12/16 06:38:15;;;;;;;2.40;1.20;;;;;;;4.11;100.00;100532.00;4967139;28;20031;-73
2023/12/16 06:40:40;;;;;;;2.13;1.10;;;;;;;4.67;100.00;100608.72;4967086;28;20038;-73
2023/12/16 06:43:06;;;;;;;0.57;0.47;;;;;;;4.05;100.00;100531.94;4986479;28;20082;-75
2023/12/16 06:45:32;;;;;;;0.80;0.70;;;;;;;4.68;100.00;100633.03;4964542;28;20026;-74
2023/12/16 06:47:58;;;;;;;0.75;0.60;;;;;;;4.25;100.00;100571.53;4975981;28;20034;-76
2023/12/16 06:50:24;;;;;;;1.58;0.90;;;;;;;4.38;100.00;100575.78;4967598;28;20034;-74
2023/12/16 06:52:50;;;;;;;1.73;1.17;;;;;;;4.72;100.00;100624.69;4961730;28;20037;-75
2023/12/16 06:55:15;;;;;;;1.40;1.00;;;;;;;4.70;100.00;100643.13;4967441;28;20064;-75
2023/12/16 06:57:41;;;;;;;1.40;1.00;;;;;;;4.20;100.00;100610.03;4982579;28;20023;-74
2023/12/16 07:00:09;;;;;;;1.60;1.00;;;;;;;4.53;100.00;100642.19;4984528;28;20419;-74
2023/12/16 07:02:36;;;;;;;1.40;0.90;;;;;;;4.62;100.00;100690.91;4982716;28;20027;-73
2023/12/16 07:05:02;;;;;;;1.00;0.70;;;;;;;4.67;100.00;100658.22;4962644;28;20456;-74
2023/12/16 07:07:28;;;;;;;1.20;0.80;;;;;;;4.34;100.00;100643.69;4963457;28;20030;-76
2023/12/16 07:09:53;;;;;;;1.10;0.70;;;;;;;4.68;100.00;100720.31;4963599;28;20122;-74
2023/12/16 07:12:19;;;;;;;0.80;0.70;;;;;;;3.96;100.00;100585.53;4985561;28;20058;-73
2023/12/16 07:14:52;;;;;;;1.50;0.90;;;;;;;4.59;100.00;100707.69;4963890;28;20030;-73
2023/12/16 07:17:17;;;;;;;1.52;1.00;;;;;;;4.77;100.00;100711.19;4984554;28;20494;-75
2023/12/16 07:19:43;;;;;;;1.73;1.02;;;;;;;4.68;100.00;100733.75;4964227;28;20181;-74
2023/12/16 07:22:08;;;;;;;1.40;1.00;;;;;;;4.63;100.00;100742.97;4962738;28;20035;-74
2023/12/16 07:24:34;;;;;;;1.13;0.90;;;;;;;4.40;100.00;100694.94;4981437;28;20038;-74
2023/12/16 07:26:59;;;;;;;2.03;1.02;;;;;;;4.71;100.00;100720.38;4980351;28;20026;-73
2023/12/16 07:29:25;;;;;;;2.20;1.45;;;;;;;4.22;100.00;100678.81;4968721;28;20047;-73
2023/12/16 07:31:50;;;;;;;2.15;1.35;;;;;;;4.68;100.00;100730.41;4967087;28;20030;-74
2023/12/16 07:34:16;;;;;;;1.80;1.33;;;;;;;4.37;100.00;100704.13;4981057;28;20062;-74
2023/12/16 07:36:43;;;;;;;1.70;1.10;;;;;;;4.32;100.00;100705.75;4983921;28;20038;-77
2023/12/16 07:39:09;;;;;;;1.80;1.10;;;;;;;4.38;100.00;100715.88;4981958;28;20174;-73
2023/12/16 07:41:35;;;;;;;1.67;1.15;;;;;;;4.62;100.00;100781.53;4965409;28;20117;-74
2023/12/16 07:44:01;;;;;;;2.30;1.50;;;;;;;4.18;100.00;100708.16;4982487;28;20042;-74
2023/12/16 07:46:27;;;;;;;2.30;1.50;;;;;;;4.72;100.00;100808.50;4966986;28;20033;-73
2023/12/16 07:48:52;;;;;;;1.58;1.20;;;;;;;4.74;100.00;100760.66;4980824;28;20023;-73
2023/12/16 07:51:25;;;;;;;1.80;1.20;;;;;;;4.43;100.00;100738.59;4978965;28;20448;-75
2023/12/16 07:53:55;;;;;;;2.70;1.40;;;;;;;4.88;100.00;100858.19;4958882;28;20053;-72
2023/12/16 07:56:23;;;;;;;2.70;1.55;;;;;;;4.69;100.00;100798.41;4980180;28;20041;-72
2023/12/16 07:58:49;;;;;;;3.00;1.73;;;;;;;4.76;100.00;100815.25;4948948;28;20097;-72
2023/12/16 08:01:18;;;;;;;2.25;1.52;;;;;;;4.45;100.00;100767.13;4977413;28;20035;-73
2023/12/16 08:03:44;;;;;;;3.05;1.80;;;;;;;4.33;100.00;100773.75;4964067;28;20042;-73
2023/12/16 08:06:10;;;;;;;2.70;1.75;;;;;;;4.32;100.00;100769.53;4976208;28;20548;-73
2023/12/16 08:08:37;;;;;;;1.70;1.35;;;;;;;4.74;100.00;100842.09;4960507;28;20023;-77
2023/12/16 08:11:04;;;;;;;2.38;1.60;;;;;;;4.66;100.00;100836.13;4968667;28;20561;-73
2023/12/16 08:13:29;;;;;;;2.63;1.73;;;;;;;4.45;100.00;100775.53;4959838;28;20426;-73
2023/12/16 08:15:55;;;;;;;2.60;1.85;;;;;;;4.82;100.00;100850.56;4981249;28;20041;-75
2023/12/16 08:18:20;;;;;;;3.28;2.40;;;;;;;4.90;100.00;100858.19;4978504;28;20116;-75
2023/12/16 08:20:46;;;;;;;3.58;2.17;;;;;;;4.42;100.00;100798.13;4967550;28;20032;-73
2023/12/16 08:23:11;;;;;;;3.47;2.58;;;;;;;4.95;100.00;100838.94;4961658;28;20034;-72
2023/12/16 08:25:37;;;;;;;4.05;2.60;;;;;;;4.85;100.00;100859.84;4963308;28;20034;-76
2023/12/16 08:28:03;;;;;;;4.68;2.72;;;;;;;4.50;100.00;100793.19;4962776;28;20490;-73
2023/12/16 08:30:28;;;;;;;3.55;2.42;;;;;;;4.96;100.00;100864.13;4978612;28;20034;-73
2023/12/16 08:32:54;;;;;;;3.15;1.90;;;;;;;4.85;100.00;100870.72;4984100;28;20022;-72
2023/12/16 08:35:19;;;;;;;4.38;2.03;;;;;;;4.56;100.00;100795.75;4983852;28;20089;-75
2023/12/16 08:37:45;;;;;;;3.20;2.05;;;;;;;4.88;100.00;100870.78;4981391;28;20030;-74
2023/12/16 08:40:11;;;;;;;3.20;2.50;;;;;;;4.45;100.00;100805.72;4964051;28;20056;-75
2023/12/16 08:42:41;;;;;;;6.20;5.55;;;;;;;4.94;100.00;100872.50;4976081;28;20038;-75
2023/12/16 08:45:07;;;;;;;8.05;4.57;;;;;;;4.67;100.00;100842.03;4980104;28;20046;-75
2023/12/16 08:47:32;;;;;;;5.13;4.20;;;;;;;5.06;100.00;100867.56;4978725;28;20502;-75
2023/12/16 08:49:58;;;;;;;5.50;3.78;;;;;;;5.08;100.00;100833.16;4982806;28;20030;-72
2023/12/16 08:52:23;;;;;;;6.50;4.57;;;;;;;4.62;100.00;100820.97;4960649;28;20030;-76
2023/12/16 08:54:49;;;;;;;6.28;4.35;;;;;;;4.57;100.00;100798.31;4976878;28;20123;-73
2023/12/16 08:57:14;;;;;;;6.03;4.05;;;;;;;4.37;100.00;100750.28;4982755;28;20026;-75
2023/12/16 08:59:40;;;;;;;8.43;5.82;;;;;;;5.02;100.00;100891.91;4977597;28;20037;-75
2023/12/16 09:02:06;;;;;;;9.70;7.85;;;;;;;4.75;100.00;100800.13;4981744;28;20113;-73
2023/12/16 09:04:32;;;;;;;8.80;6.80;;;;;;;5.06;100.00;100863.38;4979581;28;20018;-72
2023/12/16 09:06:57;;;;;;;6.95;5.07;;;;;;;4.76;100.00;100812.72;4975166;28;20030;-75
2023/12/16 09:09:23;;;;;;;7.05;4.60;;;;;;;5.08;100.00;100821.41;4983265;28;20034;-75
2023/12/16 09:11:48;;;;;;;6.43;3.80;;;;;;;4.76;100.00;100795.09;4976481;28;20043;-73
2023/12/16 09:14:14;;;;;;;4.70;3.53;;;;;;;4.78;100.00;100812.75;4964519;28;20045;-76
2023/12/16 09:16:40;;;;;;;6.30;4.93;;;;;;;4.39;100.00;100745.25;4958988;28;20106;-72
2023/12/16 09:19:07;;;;;;;5.40;3.88;;;;;;;4.72;100.00;100803.47;4966492;28;20038;-72
2023/12/16 09:21:33;;;;;;;5.10;3.35;;;;;;;5.12;100.00;100876.03;4963255;28;20117;-72
2023/12/16 09:23:59;;;;;;;4.55;3.28;;;;;;;4.69;100.00;100802.59;4961560;28;20076;-74
2023/12/16 09:26:25;;;;;;;4.07;2.85;;;;;;;4.59;100.00;100806.72;4979770;28;20027;-72
2023/12/16 09:28:51;;;;;;;6.10;4.40;;;;;;;5.25;100.00;100876.97;4979738;28;20069;-73
2023/12/16 09:31:16;;;;;;;4.18;2.65;;;;;;;4.77;100.00;100818.63;4978259;28;20044;-72
2023/12/16 09:33:42;;;;;;;3.50;2.40;;;;;;;4.94;100.00;100822.13;4980530;28;20148;-73
2023/12/16 09:36:14;;;;;;;3.70;2.78;;;;;;;4.85;100.00;100812.81;4980303;28;20036;-73
2023/12/16 09:38:40;;;;;;;3.92;2.72;;;;;;;4.87;100.00;100836.31;4974728;28;20069;-75
2023/12/16 09:41:25;;;;;;;3.10;2.13;;;;;;;4.69;100.00;100817.72;4977144;28;20030;-73
2023/12/16 09:43:53;;;;;;;7.57;6.03;;;;;;;5.36;100.00;100894.69;4977553;28;20579;-72
2023/12/16 09:46:22;;;;;;;5.47;3.95;;;;;;;5.24;100.00;100872.78;4963844;28;20039;-76
2023/12/16 09:48:48;;;;;;;7.28;5.50;;;;;;;4.89;100.00;100833.84;4984123;28;20030;-72
2023/12/16 09:51:13;;;;;;;6.07;4.15;;;;;;;5.15;100.00;100923.94;4966144;28;20026;-72
2023/12/16 09:53:39;;;;;;;4.28;3.60;;;;;;;5.16;100.00;100904.63;4981943;28;20089;-73
2023/12/16 09:56:05;;;;;;;4.65;3.20;;;;;;;5.43;100.00;100919.97;4978726;28;20042;-74
2023/12/16 09:58:33;;;;;;;2.83;2.03;;;;;;;5.24;100.00;100891.25;4980638;28;20046;-75
2023/12/16 10:00:59;;;;;;;3.22;2.20;;;;;;;5.15;100.00;100915.53;4963762;28;20063;-73
2023/12/16 10:03:24;;;;;;;4.00;2.33;;;;;;;5.20;100.00;100901.28;4977181;28;20080;-72
2023/12/16 10:05:51;;;;;;;3.45;2.45;;;;;;;5.18;100.00;100908.00;4980307;28;20493;-72
2023/12/16 10:08:16;;;;;;;3.78;2.83;;;;;;;5.22;100.00;100955.94;4978190;28;20484;-73
2023/12/16 10:10:42;;;;;;;5.00;2.90;;;;;;;5.25;100.00;100943.34;4959321;28;20026;-73
2023/12/16 10:13:08;;;;;;;3.83;2.60;;;;;;;5.25;100.00;100920.66;4959954;28;20112;-73
2023/12/16 10:15:34;;;;;;;4.63;2.13;;;;;;;5.13;100.00;100968.44;4976945;28;20034;-72
2023/12/16 10:18:03;;;;;;;2.30;1.80;;;;;;;4.83;100.00;100864.84;4960060;28;20034;-72
2023/12/16 10:20:30;;;;;;;2.40;1.90;;;;;;;4.71;100.00;100876.47;4964466;28;20065;-74
2023/12/16 10:22:59;;;;;;;2.17;1.50;;;;;;;5.25;100.00;100986.19;4974817;28;20093;-73
2023/12/16 10:25:25;;;;;;;3.10;2.20;;;;;;;5.29;100.00;100951.78;4981061;28;20795;-73
2023/12/16 10:27:59;;;;;;;3.63;2.20;;;;;;;4.71;100.00;100884.03;4980716;28;21612;-72
2023/12/16 10:30:25;;;;;;;3.38;2.30;;;;;;;5.11;100.00;100954.97;4964700;28;20096;-75
2023/12/16 10:32:51;;;;;;;2.85;1.63;;;;;;;5.14;100.00;100962.56;4963448;28;20039;-75
2023/12/16 10:35:19;;;;;;;2.88;1.95;;;;;;;4.81;100.00;100895.91;4980865;28;20101;-72
2023/12/16 10:37:51;;;;;;;3.30;2.38;;;;;;;5.22;100.00;100962.66;4960776;28;20030;-75
2023/12/16 10:40:16;;;;;;;;;;;;;;;5.39;100.00;100972.91;4961842;28;20030;-73
2023/12/16 10:42:45;;;;;;;3.97;2.50;;;;;;;5.18;100.00;100973.53;4961477;28;19949;-72
2023/12/16 10:45:12;;;;;;;4.15;2.75;;;;;;;4.83;100.00;100899.28;4961458;28;20042;-73
2023/12/16 10:47:38;;;;;;;4.40;2.72;;;;;;;4.84;100.00;100899.28;4982441;28;20524;-75
2023/12/16 10:50:04;;;;;;;4.25;2.75;;;;;;;4.96;100.00;100924.59;4986701;28;20089;-73
2023/12/16 10:52:41;;;;;;;3.63;2.40;;;;;;;4.98;100.00;100927.97;4982171;28;20034;-77
2023/12/16 10:55:14;;;;;;;4.15;2.67;;;;;;;4.93;100.00;100919.50;4981807;28;20038;-73
2023/12/16 10:58:03;;;;;;;2.70;1.83;;;;;;;5.27;100.00;100968.56;4968314;28;20493;-73
2023/12/16 11:00:32;;;;;;;3.10;2.28;;;;;;;5.46;100.00;101010.78;4966529;28;20034;-76
2023/12/16 11:03:07;;;;;;;3.40;2.28;;;;;;;5.40;100.00;101004.81;4985739;28;20046;-72
2023/12/16 11:05:42;;;;;;;3.50;2.28;;;;;;;5.50;100.00;101007.44;4982141;28;20026;-75
2023/12/16 11:08:08;;;;;;;3.22;2.42;;;;;;;5.59;100.00;101029.38;4966946;28;20037;-74
2023/12/16 11:10:35;;;;;;;3.67;2.70;;;;;;;5.77;100.00;101022.81;4981433;28;20130;-73
2023/12/16 11:13:05;;;;;;;3.17;2.30;;;;;;;5.26;100.00;100960.19;4962397;28;20062;-73
2023/12/16 11:15:32;;;;;;;3.33;2.38;;;;;;;5.21;100.00;100976.91;4976857;28;20556;-72
2023/12/16 11:18:20;;;;;;;4.15;2.88;;;;;;;5.64;100.00;101018.50;4980199;28;20039;-72
2023/12/16 11:20:52;;;;;;;3.60;2.40;;;;;;;5.54;100.00;100999.09;4969133;28;20038;-73